Latest Weather Observations for Davis*

IDT60801

Issued at 9:35 pm EST Wednesday 17 September 2014 (issued every 30 minutes, with the page automatically refreshed every 10 minutes)

About weather observations | Map of weather stations | Latest weather observations for ANT | Other Formats
Station Details ID: 300000 Name: DAVIS Lat: -68.57 Lon: 77.97 Height: 18.0 m
Data from the previous 72 hours. | See also: Recent months at Davis*
Date/Time
EST
Temp
°C
App
Temp
°C
Dew
Point
Rel
Hum
%
Delta-T
°C
Wind Press
QNH
hPa
Press
MSL
hPa
Rain
since 9 am
mm
Dir
 
Spd
km/h
Gust
km/h
Spd
kts
Gust
kts
17/09:30pm -4.8 -15.5 -13.8 49 - ENE 39 59 21 32 976.4 - -
17/09:24pm -4.6 -15.3 -13.9 48 - ENE 39 59 21 32 976.3 - -
17/09:00pm -4.6 -15.7 -13.9 48 - ENE 41 50 22 27 976.4 - -
17/08:30pm -4.5 -15.2 -13.8 48 - E 39 46 21 25 976.4 - -
17/08:00pm -4.5 -14.5 -13.8 48 - E 35 46 19 25 976.7 - -
17/07:30pm -4.4 -13.8 -13.7 48 - E 32 43 17 23 976.8 - -
17/07:00pm -5.1 -15.1 -13.9 50 - E 35 43 19 23 977.0 977.3 -
17/06:30pm -4.8 -14.8 -14.4 47 - E 35 46 19 25 977.2 - -
17/06:01pm -4.4 -13.8 -14.0 47 - E 32 50 17 27 977.7 - -
17/06:00pm -4.5 -14.1 -14.1 47 - E 33 50 18 27 977.8 - -
17/05:30pm -4.5 -15.6 -13.8 48 - E 41 52 22 28 977.6 - -
17/05:00pm -4.7 -15.8 -14.0 48 - E 41 52 22 28 977.8 - -
17/04:30pm -4.6 -14.9 -13.9 48 - ENE 37 48 20 26 977.9 - -
17/04:00pm -4.9 -14.3 -13.7 50 - E 32 41 17 22 978.3 978.6 -
17/03:30pm -5.2 -14.2 -14.0 50 - ENE 30 41 16 22 978.7 - -
17/03:00pm -5.4 -13.2 -13.4 53 - ENE 24 37 13 20 978.8 - -
17/02:30pm -6.0 -13.5 -13.8 54 - ENE 22 28 12 15 979.3 - -
17/02:00pm -6.5 -14.8 -14.0 55 - ENE 26 33 14 18 979.7 - -
17/01:30pm -6.6 -14.9 -14.6 53 - ENE 26 33 14 18 980.0 - -
17/01:00pm -7.1 -15.0 -15.3 52 - ENE 24 33 13 18 980.4 980.7 -
17/12:30pm -7.9 -14.5 -14.7 58 - ENE 17 19 9 10 980.6 - -
17/12:00pm -7.6 -14.6 -15.0 55 - E 19 26 10 14 980.6 - -
17/11:30am -8.0 -15.0 -15.2 56 - E 19 24 10 13 980.9 - -
17/11:00am -8.2 -15.8 -15.6 55 - E 22 28 12 15 981.0 - -
17/10:30am -7.9 -16.6 -15.8 53 - E 28 39 15 21 981.3 - -
17/10:00am -8.4 -16.4 -15.6 56 - E 24 30 13 16 981.4 981.7 -
17/09:30am -8.4 -16.0 -16.0 54 - E 22 28 12 15 981.8 - -
17/09:00am -8.2 -17.0 -16.5 51 - E 28 37 15 20 982.1 - -
17/08:30am -8.6 -17.8 -16.7 52 - E 30 39 16 21 982.7 - -
17/08:00am -8.5 -17.3 -16.6 52 - E 28 33 15 18 982.9 - -
17/07:30am -8.5 -16.9 -16.6 52 - E 26 35 14 19 983.3 - -
17/07:00am -9.2 -18.0 -16.8 54 - E 28 37 15 20 983.5 983.8 -
17/06:30am -8.5 -18.0 -17.0 50 - E 32 43 17 23 983.7 - -
17/06:00am -9.1 -18.6 -16.7 54 - E 32 43 17 23 983.9 - -
17/05:30am -9.1 -20.0 -17.6 50 - E 39 50 21 27 983.9 - -
17/05:00am -9.3 -18.5 -17.8 50 - E 30 35 16 19 984.5 - -
17/04:30am -9.3 -18.9 -17.5 51 - E 32 41 17 22 984.9 - -
17/04:00am -8.4 -19.3 -17.4 48 - E 39 46 21 25 984.9 985.2 -
17/03:30am -8.5 -18.1 -17.3 49 - E 32 39 17 21 985.2 - -
17/03:00am -7.8 -16.9 -16.6 49 - E 30 43 16 23 985.4 - -
17/02:30am -7.7 -15.7 -16.8 48 - E 24 39 13 21 985.6 - -
17/02:00am -7.8 -17.9 -16.1 51 - E 35 46 19 25 985.6 - -
17/01:30am -7.6 -18.1 -16.4 49 - E 37 46 20 25 986.0 - -
17/01:00am -7.7 -17.2 -16.8 48 - E 32 39 17 21 986.4 986.7 -
17/12:30am -7.6 -17.1 -16.7 48 - E 32 46 17 25 986.5 - -
17/12:00am -7.3 -16.8 -16.9 46 - E 32 43 17 23 986.9 - -
 
Date/Time
EST
Temp
°C
App
Temp
°C
Dew
Point
Rel
Hum
%
Delta-T
°C
Wind Press
QNH
hPa
Press
MSL
hPa
Rain
since 9 am
mm
Dir
 
Spd
km/h
Gust
km/h
Spd
kts
Gust
kts
16/11:30pm -7.8 -15.4 -16.6 49 - E 22 30 12 16 987.0 - -
16/11:03pm -7.9 -18.4 -17.7 45 - E 37 56 20 30 987.0 - -
16/11:00pm -7.7 -19.0 -17.8 44 - E 41 56 22 30 987.0 - -
16/10:42pm -7.8 -18.7 -18.2 43 - E 39 57 21 31 987.2 - -
16/10:30pm -7.3 -19.2 -18.3 41 - E 44 56 24 30 987.0 - -
16/10:00pm -7.3 -17.8 -17.7 43 - E 37 48 20 26 987.2 987.6 -
16/09:56pm -7.2 -16.0 -17.9 42 - E 28 46 15 25 987.4 - -
16/09:30pm -6.7 -15.5 -18.3 39 - E 28 41 15 22 988.0 - -
16/09:12pm -6.7 -15.5 -17.7 41 - E 28 48 15 26 987.5 - -
16/09:00pm -7.0 -15.8 -17.2 44 - E 28 44 15 24 988.0 - -
16/08:56pm -6.9 -16.5 -17.3 43 - E 32 50 17 27 988.1 - -
16/08:30pm -6.9 -17.0 -16.5 46 - E 35 43 19 23 988.1 - -
16/08:00pm -6.2 -16.7 -17.0 42 - E 37 50 20 27 988.3 - -
16/07:30pm -6.3 -15.4 -16.2 45 - E 30 39 16 21 988.5 - -
16/07:00pm -6.3 -17.9 -16.8 43 - E 43 52 23 28 988.4 988.8 -
16/06:30pm -6.0 -17.8 -16.8 42 - E 44 56 24 30 988.2 - -
16/06:00pm -6.0 -18.2 -16.8 42 - E 46 56 25 30 988.5 - -
16/05:30pm -5.9 -15.4 -15.1 48 - E 32 44 17 24 988.9 - -
16/05:00pm -5.8 -16.6 -15.5 46 - ENE 39 50 21 27 988.4 - -
16/04:30pm -6.0 -16.0 -15.2 48 - E 35 41 19 22 988.5 - -
16/04:00pm -6.1 -16.1 -15.3 48 - ENE 35 44 19 24 988.6 989.0 -
16/03:30pm -6.0 -15.1 -15.0 49 - E 30 37 16 20 988.8 - -
16/03:00pm -6.4 -13.9 -14.4 53 - ENE 22 28 12 15 989.2 - -
16/02:30pm -6.4 -14.3 -13.7 56 - ENE 24 33 13 18 989.2 - -
16/02:00pm -6.6 -14.8 -13.7 57 - ENE 26 39 14 21 989.3 - -
16/01:30pm -7.1 -14.2 -14.1 57 - E 20 24 11 13 989.2 - -
16/01:00pm -6.5 -17.3 -14.7 52 - E 39 46 21 25 988.8 989.2 -
16/12:30pm -6.6 -17.4 -15.8 48 - ENE 39 48 21 26 988.7 - -
16/12:00pm -6.4 -16.1 -15.6 48 - ENE 33 43 18 23 988.7 - -
16/11:34am -6.1 -15.8 -16.1 45 - ENE 33 54 18 29 988.4 - -
16/11:30am -6.4 -15.1 -15.8 47 - ENE 28 43 15 23 988.5 - -
16/11:00am -7.3 -16.0 -15.9 50 - E 28 35 15 19 988.9 - -
16/10:30am -6.7 -16.8 -16.6 45 - E 35 46 19 25 988.7 - -
16/10:00am -7.0 -16.6 -17.2 44 - E 32 39 17 21 988.9 989.3 -
16/09:30am -7.0 -16.7 -17.2 44 - E 33 44 18 24 989.0 - -
16/09:00am -7.5 -16.7 -16.8 47 - E 30 37 16 20 989.1 - -
16/08:30am -7.9 -17.4 -17.0 48 - E 32 41 17 22 989.2 - -
16/08:00am -7.9 -17.6 -17.2 47 - E 33 43 18 23 989.1 - -
16/07:30am -7.9 -17.5 -17.5 46 - E 32 39 17 21 989.3 - -
16/07:00am -7.8 -17.5 -17.1 47 - E 33 46 18 25 989.1 989.5 -
16/06:30am -8.3 -18.4 -17.3 48 - E 35 46 19 25 989.5 - -
16/06:00am -8.1 -18.6 -17.4 47 - E 37 44 20 24 989.1 - -
16/05:30am -8.1 -19.8 -17.9 45 - E 43 52 23 28 989.4 - -
16/05:00am -7.4 -17.5 -17.3 45 - E 35 43 19 23 989.7 - -
16/04:30am -7.4 -16.9 -16.5 48 - E 32 41 17 22 989.8 - -
16/04:00am -8.0 -17.5 -16.3 51 - E 32 43 17 23 989.9 990.3 -
16/03:30am -7.7 -16.4 -15.8 52 - E 28 33 15 18 989.9 - -
16/03:00am -7.7 -16.5 -16.3 50 - E 28 32 15 17 989.9 - -
16/02:30am -7.5 -16.6 -16.1 50 - E 30 35 16 19 990.1 - -
16/02:00am -7.3 -16.0 -16.2 49 - E 28 35 15 19 990.3 - -
16/01:30am -7.9 -16.6 -15.8 53 - E 28 35 15 19 990.5 - -
16/01:00am -7.8 -16.2 -15.9 52 - E 26 33 14 18 990.5 990.9 -
16/12:30am -7.5 -15.5 -16.6 48 - E 24 33 13 18 990.8 - -
16/12:00am -7.4 -15.4 -15.8 51 - E 24 32 13 17 991.0 - -
 
Date/Time
EST
Temp
°C
App
Temp
°C
Dew
Point
Rel
Hum
%
Delta-T
°C
Wind Press
QNH
hPa
Press
MSL
hPa
Rain
since 9 am
mm
Dir
 
Spd
km/h
Gust
km/h
Spd
kts
Gust
kts
15/11:30pm -7.9 -15.8 -15.1 56 - E 24 33 13 18 991.2 - -
15/11:00pm -7.7 -16.0 -14.5 58 - E 26 32 14 17 991.2 - -
15/10:30pm -7.9 -16.2 -14.7 58 - E 26 35 14 19 991.4 - -
15/10:00pm -7.9 -15.1 -15.3 55 - E 20 28 11 15 991.6 992.0 -
15/09:30pm -7.8 -15.8 -15.5 54 - E 24 30 13 16 991.8 - -
15/09:00pm -8.0 -14.6 -15.6 54 - E 17 26 9 14 992.1 - -
15/08:30pm -8.0 -15.2 -15.9 53 - E 20 28 11 15 992.1 - -
15/08:00pm -7.7 -16.5 -16.8 48 - E 28 35 15 19 992.0 - -
15/07:30pm -7.4 -16.2 -16.5 48 - E 28 32 15 17 991.9 - -
15/07:00pm -7.5 -16.6 -16.1 50 - ENE 30 37 16 20 991.8 992.2 -
15/06:30pm -7.7 -16.1 -16.5 49 - ENE 26 32 14 17 991.9 - -
15/06:00pm -7.9 -15.5 -16.7 49 - ENE 22 32 12 17 992.0 - -
15/05:30pm -8.0 -15.6 -16.3 51 - ENE 22 30 12 16 992.0 - -
15/05:00pm -7.9 -16.6 -16.2 51 - ENE 28 33 15 18 991.8 - -
15/04:30pm -8.0 -16.8 -16.8 49 - ENE 28 37 15 20 991.8 - -
15/04:00pm -8.2 -17.0 -17.2 48 - ENE 28 35 15 19 991.8 992.2 -
15/03:30pm -8.4 -18.5 -17.4 48 - ENE 35 46 19 25 991.7 - -
15/03:00pm -8.7 -18.5 -17.4 49 - ENE 33 46 18 25 991.6 - -
15/02:30pm -9.0 -19.1 -17.5 50 - ENE 35 43 19 23 991.6 - -
15/02:00pm -9.3 -19.4 -17.1 53 - ENE 35 44 19 24 991.5 - -
15/01:30pm -9.8 -19.0 -17.5 53 - ENE 30 39 16 21 991.5 - -
15/01:00pm -10.0 -18.8 -18.0 52 - ENE 28 35 15 19 991.6 992.0 -
15/12:30pm -10.3 -18.7 -17.4 56 - ENE 26 32 14 17 991.5 - -
15/12:00pm -10.7 -19.1 -17.3 58 - ENE 26 32 14 17 991.5 - -
15/11:30am -11.4 -19.1 -17.4 61 - ENE 22 26 12 14 991.5 - -
15/11:00am -12.0 -20.1 -18.4 59 - ENE 24 30 13 16 991.4 - -
15/10:30am -12.5 -19.7 -18.8 59 - ENE 19 24 10 13 991.3 - -
15/10:00am -11.8 -17.4 -18.2 59 - ENE 11 15 6 8 991.3 991.7 -
15/09:30am -12.5 -18.9 -18.6 60 - E 15 17 8 9 991.2 - -
15/09:00am -12.3 -19.1 -18.8 58 - E 17 20 9 11 991.0 - -
15/08:30am -12.1 -17.4 -18.8 57 - E 9 11 5 6 991.1 - -
15/08:00am -12.9 -18.2 -19.0 60 - ESE 9 11 5 6 990.8 - -
15/07:30am -13.7 -19.0 -19.6 61 - E 9 11 5 6 990.5 - -
15/07:00am -13.8 -18.7 -19.9 60 - ENE 7 11 4 6 990.2 990.6 -
15/06:30am -13.6 -18.9 -20.7 55 - NE 9 13 5 7 990.0 - -
15/06:00am -13.5 -18.8 -20.2 57 - NE 9 13 5 7 989.9 - -
15/05:30am -14.5 -20.6 -20.7 59 - NE 13 17 7 9 989.7 - -
15/05:00am -14.5 -21.0 -20.9 58 - NE 15 17 8 9 989.3 - -
15/04:30am -15.0 -21.8 -20.6 62 - ENE 17 20 9 11 989.2 - -
15/04:00am -15.6 -22.5 -21.4 61 - ENE 17 19 9 10 989.1 989.5 -
15/03:30am -16.0 -22.9 -21.4 63 - ENE 17 19 9 10 989.0 - -
15/03:00am -15.9 -22.8 -21.8 60 - NE 17 19 9 10 988.9 - -
15/02:30am -15.5 -21.6 -21.7 59 - ENE 13 15 7 8 988.9 - -
15/02:00am -16.0 -22.1 -21.8 61 - E 13 15 7 8 988.9 - -
15/01:30am -16.2 -23.1 -22.3 59 - ENE 17 19 9 10 989.0 - -
15/01:00am -16.3 -23.2 -22.8 57 - ENE 17 19 9 10 988.9 989.3 -

Other Formats:

Comma delimited format used in spreadsheet applications
http://www.bom.gov.au/fwo/IDT60803/IDT60803.89571.axf

JavaScript Object Notation format (JSON) in row-major order
http://www.bom.gov.au/fwo/IDT60803/IDT60803.89571.json